Time;durP1;ratioP1;P1;durP2;ratioP2;P2;SDS_P1;SDS_P2;PMS_P1;PMS_P2;Temp;Humidity;BMP_temperature;BMP_pressure;BME280_temperature;BME280_humidity;BME280_pressure;Samples;Min_cycle;Max_cycle;Signal;HPM_P1;HPM_P2
2021/07/15 00:00:54;;;;;;;;;;;;;;;26.87;52.55;100559.30;1739616;81;20851;-50
2021/07/15 00:03:22;;;;;;;;;;;;;;;26.87;52.57;100560.11;1739748;81;20203;-52
2021/07/15 00:05:49;;;;;;;;;;;;;;;26.88;52.59;100559.53;1761819;79;20425;-54
2021/07/15 00:08:16;;;;;;;;;;;;;;;26.88;52.60;100553.95;1792394;79;20241;-52
2021/07/15 00:11:00;;;;;;;;;;;;;;;26.88;52.59;100555.34;1795147;79;21082;-53
2021/07/15 00:13:26;;;;;;;;;;;;;;;26.88;52.62;100556.16;1793356;79;20455;-53
2021/07/15 00:15:56;;;;;;;;;;;;;;;26.89;52.63;100558.36;1794664;79;20186;-50
2021/07/15 00:18:24;;;;;;;;;;;;;;;26.89;52.63;100554.17;1791039;79;20222;-53
2021/07/15 00:20:50;;;;;;;;;;;;;;;26.89;52.65;100552.20;1790290;79;20199;-53
2021/07/15 00:23:16;;;;;;;;;;;;;;;26.88;52.65;100557.55;1795515;79;21298;-53
2021/07/15 00:25:43;;;;;;;;;;;;;;;26.89;52.69;100553.59;1796565;78;20375;-53
2021/07/15 00:28:08;;;;;;;;;;;;;;;26.89;52.71;100552.20;1802376;78;20183;-52
2021/07/15 00:30:34;;;;;;;;;;;;;;;26.89;52.71;100550.80;1801113;78;20473;-52
2021/07/15 00:33:04;;;;;;;;;;;;;;;26.90;52.72;100546.84;1760289;79;20162;-53
2021/07/15 00:35:31;;;;;;;;;;;;;;;26.89;52.72;100556.97;1768081;79;21916;-53
2021/07/15 00:37:57;;;;;;;;;;;;;;;26.90;52.75;100552.42;1793595;78;20147;-51
2021/07/15 00:40:23;;;;;;;;;;;;;;;26.90;52.76;100560.80;1763511;79;20275;-52
2021/07/15 00:42:49;;;;;;;;;;;;;;;26.90;52.76;100548.82;1763735;80;20188;-50
2021/07/15 00:45:20;;;;;;;;;;;;;;;26.90;52.77;100549.63;1794750;78;20239;-50
2021/07/15 00:47:43;;;;;;;;;;;;;;;26.91;52.80;100557.39;1792835;79;21205;-52
2021/07/15 00:50:10;;;;;;;;;;;;;;;26.90;52.82;100552.42;1787416;79;20187;-53
2021/07/15 00:52:36;;;;;;;;;;;;;;;26.91;52.82;100559.60;1795402;79;20170;-53
2021/07/15 00:55:02;;;;;;;;;;;;;;;26.91;52.83;100554.02;1796230;79;20207;-53
2021/07/15 00:57:28;;;;;;;;;;;;;;;26.91;52.83;100551.22;1793011;79;20485;-52
2021/07/15 00:59:54;;;;;;;;;;;;;;;26.93;52.83;100553.66;1790497;79;21267;-52
2021/07/15 01:02:20;;;;;;;;;;;;;;;26.92;52.86;100554.25;1793722;79;20526;-52
2021/07/15 01:04:46;;;;;;;;;;;;;;;26.93;52.87;100550.28;1793845;79;20205;-53
2021/07/15 01:07:12;;;;;;;;;;;;;;;26.93;52.88;100555.06;1788544;79;20171;-51
2021/07/15 01:09:38;;;;;;;;;;;;;;;26.93;52.91;100546.10;1779841;79;20167;-52
2021/07/15 01:12:27;;;;;;;;;;;;;;;26.93;52.89;100542.50;1787216;79;21171;-53
2021/07/15 01:15:12;;;;;;;;;;;;;;;26.93;52.92;100552.27;1784366;79;20355;-52
2021/07/15 01:17:51;;;;;;;;;;;;;;;26.93;52.93;100548.89;1785071;79;20190;-53
2021/07/15 01:20:53;;;;;;;;;;;;;;;26.93;52.94;100541.09;1775568;79;20533;-53
2021/07/15 01:23:25;;;;;;;;;;;;;;;26.93;52.93;100542.50;1780056;79;20545;-55
2021/07/15 01:26:30;;;;;;;;;;;;;;;26.92;52.95;100543.08;1785403;79;21971;-53
2021/07/15 01:29:21;;;;;;;;;;;;;;;26.92;52.95;100540.28;1781184;79;20227;-54
2021/07/15 01:31:47;;;;;;;;;;;;;;;26.92;52.98;100547.27;1650191;84;20564;-54
2021/07/15 01:34:13;;;;;;;;;;;;;;;26.91;52.97;100547.04;1737571;79;20146;-54
2021/07/15 01:36:41;;;;;;;;;;;;;;;26.91;53.01;100547.04;1784350;79;20225;-52
2021/07/15 01:39:08;;;;;;;;;;;;;;;26.91;53.01;100547.04;1781836;79;21961;-53
2021/07/15 01:41:39;;;;;;;;;;;;;;;26.92;53.03;100545.06;1782829;79;20192;-54
2021/07/15 01:44:09;;;;;;;;;;;;;;;26.91;53.06;100537.27;1771098;79;20156;-54
2021/07/15 01:46:35;;;;;;;;;;;;;;;26.91;53.07;100534.48;1777896;79;21767;-55
2021/07/15 01:49:02;;;;;;;;;;;;;;;26.91;53.09;100530.88;1752180;80;20303;-53
2021/07/15 01:51:28;;;;;;;;;;;;;;;26.90;53.10;100531.48;1754838;80;21148;-52
2021/07/15 01:53:54;;;;;;;;;;;;;;;26.91;53.13;100537.27;1786738;79;21061;-53
2021/07/15 01:56:19;;;;;;;;;;;;;;;26.91;53.16;100535.06;1785002;79;20249;-54
2021/07/15 01:58:46;;;;;;;;;;;;;;;26.91;53.16;100528.89;1758402;79;20143;-50
2021/07/15 02:01:12;;;;;;;;;;;;;;;26.91;53.20;100535.87;1783498;79;20683;-54
2021/07/15 02:03:39;;;;;;;;;;;;;;;26.92;53.20;100543.08;1786070;80;20788;-53
2021/07/15 02:06:05;;;;;;;;;;;;;;;26.92;53.20;100540.88;1784454;79;20235;-53
2021/07/15 02:08:31;;;;;;;;;;;;;;;26.92;53.22;100538.08;1776997;79;20187;-50
2021/07/15 02:10:57;;;;;;;;;;;;;;;26.92;53.22;100536.69;1784129;79;20250;-51
2021/07/15 02:13:23;;;;;;;;;;;;;;;26.93;53.26;100543.89;1782854;79;20764;-53
2021/07/15 02:15:49;;;;;;;;;;;;;;;26.93;53.28;100539.70;1786089;79;23269;-54
2021/07/15 02:18:19;;;;;;;;;;;;;;;26.92;53.31;100536.09;1784565;79;20169;-53
2021/07/15 02:20:46;;;;;;;;;;;;;;;26.93;53.32;100539.70;1783098;79;20140;-52
2021/07/15 02:23:12;;;;;;;;;;;;;;;26.93;53.33;100540.52;1786079;79;20424;-54
2021/07/15 02:25:39;;;;;;;;;;;;;;;26.93;53.35;100538.31;1784840;79;20148;-51
2021/07/15 02:28:06;;;;;;;;;;;;;;;26.93;53.37;100534.12;1786713;79;21159;-51
2021/07/15 02:30:32;;;;;;;;;;;;;;;26.93;53.39;100541.09;1780784;79;20162;-54
2021/07/15 02:33:01;;;;;;;;;;;;;;;26.93;53.40;100539.70;1785012;79;20113;-53
2021/07/15 02:35:29;;;;;;;;;;;;;;;26.93;53.44;100535.52;1777753;79;20489;-52
2021/07/15 02:37:57;;;;;;;;;;;;;;;26.93;53.46;100536.91;1784349;79;20196;-53
2021/07/15 02:40:23;;;;;;;;;;;;;;;26.92;53.46;100536.09;1781536;79;21125;-54
2021/07/15 02:42:51;;;;;;;;;;;;;;;26.93;53.50;100536.91;1782536;79;20219;-50
2021/07/15 02:45:18;;;;;;;;;;;;;;;26.94;53.50;100539.94;1777906;79;20201;-53
2021/07/15 02:47:44;;;;;;;;;;;;;;;26.93;53.53;100542.50;1780172;79;20234;-53
2021/07/15 02:50:11;;;;;;;;;;;;;;;26.94;53.56;100535.74;1778997;79;20187;-55
2021/07/15 02:52:37;;;;;;;;;;;;;;;26.93;53.58;100540.52;1781952;80;21031;-51
2021/07/15 02:55:04;;;;;;;;;;;;;;;26.94;53.60;100542.72;1783326;79;20780;-54
2021/07/15 02:57:59;;;;;;;;;;;;;;;26.93;53.64;100535.52;1769293;79;20947;-52
2021/07/15 03:00:25;;;;;;;;;;;;;;;26.94;53.69;100538.53;1775015;79;20244;-50
2021/07/15 03:03:15;;;;;;;;;;;;;;;26.94;53.72;100537.14;1777324;79;20239;-53
2021/07/15 03:05:45;;;;;;;;;;;;;;;26.94;53.73;100542.72;1780629;79;21173;-54
2021/07/15 03:08:13;;;;;;;;;;;;;;;26.92;53.74;100543.08;1779626;79;20151;-52
2021/07/15 03:10:39;;;;;;;;;;;;;;;26.91;53.74;100537.27;1780071;79;20321;-54
2021/07/15 03:13:09;;;;;;;;;;;;;;;26.90;53.78;100538.47;1777473;80;20186;-53
2021/07/15 03:15:35;;;;;;;;;;;;;;;26.89;53.75;100542.42;1779499;80;20250;-51
2021/07/15 03:18:00;;;;;;;;;;;;;;;26.88;53.77;100540.80;1781638;79;21216;-53
2021/07/15 03:20:32;;;;;;;;;;;;;;;26.88;53.86;100539.41;1783472;79;20257;-53
2021/07/15 03:23:00;;;;;;;;;;;;;;;26.88;53.88;100536.61;1771276;80;20176;-53
2021/07/15 03:25:26;;;;;;;;;;;;;;;26.88;53.94;100544.98;1783895;79;20568;-53
2021/07/15 03:27:52;;;;;;;;;;;;;;;26.88;53.95;100538.01;1780682;80;20701;-53
2021/07/15 03:30:18;;;;;;;;;;;;;;;26.89;53.96;100538.83;1776073;79;23303;-53
2021/07/15 03:32:46;;;;;;;;;;;;;;;26.89;53.98;100539.63;1781192;79;20206;-54
2021/07/15 03:35:13;;;;;;;;;;;;;;;26.89;54.00;100534.05;1778995;80;20168;-52
2021/07/15 03:37:40;;;;;;;;;;;;;;;26.89;54.05;100533.23;1754820;80;20343;-54
2021/07/15 03:40:07;;;;;;;;;;;;;;;26.89;54.05;100526.27;1752221;80;20137;-52
2021/07/15 03:42:33;;;;;;;;;;;;;;;26.88;54.04;100533.83;1779102;79;21141;-53
2021/07/15 03:44:59;;;;;;;;;;;;;;;26.89;54.06;100530.45;1780824;79;20270;-52
2021/07/15 03:47:25;;;;;;;;;;;;;;;26.88;54.07;100533.83;1777255;79;20207;-53
2021/07/15 03:49:51;;;;;;;;;;;;;;;26.87;54.07;100523.83;1779753;80;20657;-50
2021/07/15 03:52:17;;;;;;;;;;;;;;;26.88;54.08;100524.64;1781669;79;20198;-51
2021/07/15 03:54:46;;;;;;;;;;;;;;;26.88;54.09;100527.42;1780375;79;21873;-51
2021/07/15 03:57:13;;;;;;;;;;;;;;;26.89;54.11;100533.23;1778858;79;20100;-51
2021/07/15 03:59:47;;;;;;;;;;;;;;;26.87;54.12;100529.41;1769264;80;20223;-56
2021/07/15 04:02:15;;;;;;;;;;;;;;;26.87;54.12;100530.80;1775518;80;20306;-56
2021/07/15 04:04:43;;;;;;;;;;;;;;;26.88;54.12;100534.41;1775012;80;20416;-56
2021/07/15 04:07:09;;;;;;;;;;;;;;;26.88;54.11;100535.22;1777432;80;21122;-55
2021/07/15 04:09:36;;;;;;;;;;;;;;;26.89;54.13;100535.45;1770367;80;20206;-58
2021/07/15 04:12:03;;;;;;;;;;;;;;;26.88;54.12;100535.22;1775889;80;20168;-56
2021/07/15 04:14:45;;;;;;;;;;;;;;;26.89;54.15;100535.45;1772722;80;20981;-54
2021/07/15 04:17:12;;;;;;;;;;;;;;;26.90;54.21;100536.26;1764374;80;20160;-52
2021/07/15 04:19:38;;;;;;;;;;;;;;;26.89;54.24;100525.67;1746282;80;21173;-57
2021/07/15 04:22:05;;;;;;;;;;;;;;;26.88;54.19;100528.24;1772366;80;20211;-57
2021/07/15 04:24:31;;;;;;;;;;;;;;;26.89;54.19;100527.66;1770031;79;20218;-55
2021/07/15 04:26:58;;;;;;;;;;;;;;;26.87;54.22;100521.03;1773789;80;20179;-55
2021/07/15 04:29:24;;;;;;;;;;;;;;;26.88;54.19;100520.45;1772123;80;20434;-56
2021/07/15 04:32:08;;;;;;;;;;;;;;;26.88;54.22;100520.45;1770979;79;21962;-55
2021/07/15 04:34:35;;;;;;;;;;;;;;;26.88;54.23;100519.05;1772984;80;20223;-53
2021/07/15 04:37:01;;;;;;;;;;;;;;;26.88;54.26;100520.45;1774351;80;20414;-54
2021/07/15 04:39:27;;;;;;;;;;;;;;;26.87;54.27;100523.83;1769202;80;20774;-55
2021/07/15 04:41:54;;;;;;;;;;;;;;;26.87;54.23;100523.83;1772865;79;20190;-57
2021/07/15 04:44:20;;;;;;;;;;;;;;;26.86;54.26;100526.42;1765579;80;21225;-50
2021/07/15 04:46:46;;;;;;;;;;;;;;;26.87;54.28;100523.83;1774025;79;20162;-57
2021/07/15 04:49:12;;;;;;;;;;;;;;;26.88;54.29;100521.84;1770006;79;20576;-55
2021/07/15 04:51:40;;;;;;;;;;;;;;;26.87;54.35;100536.38;1773386;80;20177;-57
2021/07/15 04:54:07;;;;;;;;;;;;;;;26.88;54.39;100531.03;1772082;80;20161;-57
2021/07/15 04:56:33;;;;;;;;;;;;;;;26.89;54.37;100544.41;1768100;80;21064;-57
2021/07/15 04:58:59;;;;;;;;;;;;;;;26.90;54.37;100544.63;1772113;80;20308;-52
2021/07/15 05:01:25;;;;;;;;;;;;;;;26.90;54.38;100536.26;1763878;80;20501;-49
2021/07/15 05:03:51;;;;;;;;;;;;;;;26.90;54.37;100534.28;1767244;80;20402;-49
2021/07/15 05:06:19;;;;;;;;;;;;;;;26.92;54.36;100538.08;1739068;80;20732;-52
2021/07/15 05:08:44;;;;;;;;;;;;;;;26.93;54.36;100542.50;1770849;80;21317;-53
2021/07/15 05:11:12;;;;;;;;;;;;;;;26.94;54.40;100534.34;1770367;80;20756;-52
2021/07/15 05:13:38;;;;;;;;;;;;;;;26.92;54.42;100524.94;1765452;80;20402;-49
2021/07/15 05:16:05;;;;;;;;;;;;;;;26.92;54.43;100529.13;1774037;80;20203;-50
2021/07/15 05:18:31;;;;;;;;;;;;;;;26.92;54.43;100526.33;1776139;80;20220;-54
2021/07/15 05:20:57;;;;;;;;;;;;;;;26.92;54.45;100529.13;1771479;80;21041;-50
2021/07/15 05:23:23;;;;;;;;;;;;;;;26.90;54.44;100527.30;1736409;80;20188;-49
2021/07/15 05:25:51;;;;;;;;;;;;;;;26.90;54.42;100530.09;1770749;80;20282;-50
2021/07/15 05:28:17;;;;;;;;;;;;;;;26.91;54.43;100533.08;1772534;80;20188;-52
2021/07/15 05:30:43;;;;;;;;;;;;;;;26.91;54.43;100533.66;1769057;79;20172;-50
2021/07/15 05:33:09;;;;;;;;;;;;;;;26.89;54.50;100531.27;1772678;80;21132;-50
2021/07/15 05:35:35;;;;;;;;;;;;;;;26.90;54.57;100525.09;1771676;80;21009;-52
2021/07/15 05:38:04;;;;;;;;;;;;;;;26.91;54.54;100530.88;1773003;80;20210;-53
2021/07/15 05:40:29;;;;;;;;;;;;;;;26.90;54.56;100530.09;1770948;80;20227;-54
2021/07/15 05:42:55;;;;;;;;;;;;;;;26.90;54.59;100527.88;1768762;80;20218;-53
2021/07/15 05:45:21;;;;;;;;;;;;;;;26.91;54.57;100536.45;1768454;80;21203;-54
2021/07/15 05:47:47;;;;;;;;;;;;;;;26.92;54.58;100536.09;1772305;79;20169;-56
2021/07/15 05:50:13;;;;;;;;;;;;;;;26.93;54.58;100535.52;1768474;80;20286;-54
2021/07/15 05:52:39;;;;;;;;;;;;;;;26.93;54.58;100538.31;1771578;80;20179;-53
2021/07/15 05:55:05;;;;;;;;;;;;;;;26.92;54.57;100543.08;1772070;80;20297;-50
2021/07/15 05:57:33;;;;;;;;;;;;;;;26.93;54.58;100541.91;1767615;80;21197;-52
2021/07/15 06:00:00;;;;;;;;;;;;;;;26.93;54.55;100544.70;1764745;79;20161;-55
2021/07/15 06:02:26;;;;;;;;;;;;;;;26.87;54.43;100545.34;1773357;79;20421;-54
2021/07/15 06:04:54;;;;;;;;;;;;;;;26.77;54.34;100549.52;1773191;80;20446;-54
2021/07/15 06:07:20;;;;;;;;;;;;;;;26.67;54.32;100549.50;1769636;80;20220;-54
2021/07/15 06:09:45;;;;;;;;;;;;;;;26.57;54.32;100547.27;1769864;79;21204;-54
2021/07/15 06:12:11;;;;;;;;;;;;;;;26.50;54.31;100535.95;1772451;80;20178;-54
2021/07/15 06:14:37;;;;;;;;;;;;;;;26.43;54.27;100541.97;1767606;80;20128;-51
2021/07/15 06:17:03;;;;;;;;;;;;;;;26.38;54.26;100550.03;1774259;79;20496;-53
2021/07/15 06:19:30;;;;;;;;;;;;;;;26.31;54.20;100545.07;1772196;80;20183;-52
2021/07/15 06:21:56;;;;;;;;;;;;;;;26.26;54.15;100544.56;1770577;80;23214;-53
2021/07/15 06:24:22;;;;;;;;;;;;;;;26.20;54.09;100548.79;1772362;79;20351;-50
2021/07/15 06:26:48;;;;;;;;;;;;;;;26.14;54.04;100541.24;1771118;80;20221;-53
2021/07/15 06:29:15;;;;;;;;;;;;;;;26.11;53.95;100541.98;1769920;80;20716;-53
2021/07/15 06:31:41;;;;;;;;;;;;;;;26.06;53.88;100538.06;1776105;80;20227;-53
2021/07/15 06:34:07;;;;;;;;;;;;;;;26.03;53.79;100534.61;1771008;80;21076;-50
2021/07/15 06:36:33;;;;;;;;;;;;;;;25.99;53.72;100532.32;1768244;79;20293;-53
2021/07/15 06:38:59;;;;;;;;;;;;;;;25.96;53.63;100525.27;1769086;79;20410;-53
2021/07/15 06:41:25;;;;;;;;;;;;;;;25.93;53.54;100526.78;1770458;79;21663;-50
2021/07/15 06:43:51;;;;;;;;;;;;;;;25.90;53.42;100526.13;1770341;80;20170;-52
2021/07/15 06:46:17;;;;;;;;;;;;;;;25.87;53.36;100519.88;1771138;80;21160;-51
2021/07/15 06:48:43;;;;;;;;;;;;;;;25.84;53.31;100524.17;1770239;79;20426;-55
2021/07/15 06:51:09;;;;;;;;;;;;;;;25.84;53.19;100527.58;1769423;80;20366;-58
2021/07/15 06:53:35;;;;;;;;;;;;;;;25.80;53.13;100534.43;1769045;79;20189;-60
2021/07/15 06:56:01;;;;;;;;;;;;;;;25.81;53.18;100531.87;1774008;80;20182;-60
2021/07/15 06:58:27;;;;;;;;;;;;;;;25.86;53.16;100530.22;1774131;80;21139;-60
2021/07/15 07:00:57;;;;;;;;;;;;;;;25.92;53.11;100530.77;1770487;80;20657;-60
2021/07/15 07:03:24;;;;;;;;;;;;;;;25.96;53.04;100528.87;1768943;80;20221;-59
2021/07/15 07:05:51;;;;;;;;;;;;;;;26.02;52.95;100529.39;1768530;79;20136;-59
2021/07/15 07:08:17;;;;;;;;;;;;;;;26.06;52.87;100527.49;1771712;80;20468;-59
2021/07/15 07:10:42;;;;;;;;;;;;;;;26.09;52.77;100529.00;1768154;80;21076;-59
2021/07/15 07:13:08;;;;;;;;;;;;;;;26.12;52.73;100533.84;1767548;80;20864;-60
2021/07/15 07:15:34;;;;;;;;;;;;;;;26.16;52.64;100531.13;1770570;80;20175;-60
2021/07/15 07:18:00;;;;;;;;;;;;;;;26.18;52.61;100535.16;1772087;79;20194;-60
2021/07/15 07:20:26;;;;;;;;;;;;;;;26.19;52.55;100528.42;1770659;79;20706;-60
2021/07/15 07:22:52;;;;;;;;;;;;;;;26.22;52.50;100527.75;1768732;80;21079;-60
2021/07/15 07:25:18;;;;;;;;;;;;;;;26.23;52.46;100530.73;1772448;80;20760;-56
2021/07/15 07:27:45;;;;;;;;;;;;;;;26.23;52.26;100525.16;1770036;80;20226;-57
2021/07/15 07:30:12;;;;;;;;;;;;;;;26.14;51.99;100532.88;1771843;80;20133;-57
2021/07/15 07:32:38;;;;;;;;;;;;;;;26.03;51.87;100526.25;1767336;79;20666;-57
2021/07/15 07:35:05;;;;;;;;;;;;;;;25.94;51.80;100533.98;1771938;80;21229;-56
2021/07/15 07:37:32;;;;;;;;;;;;;;;25.85;51.71;100533.35;1773781;80;20363;-56
2021/07/15 07:39:58;;;;;;;;;;;;;;;25.77;51.67;100525.98;1773281;80;20198;-56
2021/07/15 07:42:24;;;;;;;;;;;;;;;25.71;51.62;100528.83;1770720;80;20207;-57
2021/07/15 07:44:50;;;;;;;;;;;;;;;25.65;51.54;100526.07;1745352;80;20381;-56
2021/07/15 07:47:16;;;;;;;;;;;;;;;25.59;51.46;100531.09;1773992;79;22069;-56
2021/07/15 07:49:42;;;;;;;;;;;;;;;25.55;51.36;100526.59;1769660;79;21660;-55
2021/07/15 07:52:08;;;;;;;;;;;;;;;25.48;51.31;100522.44;1769089;80;20278;-57
2021/07/15 07:54:34;;;;;;;;;;;;;;;25.45;51.24;100522.34;1766242;80;20204;-56
2021/07/15 07:57:00;;;;;;;;;;;;;;;25.41;51.16;100527.02;1770593;80;20169;-56
2021/07/15 07:59:26;;;;;;;;;;;;;;;25.38;51.07;100523.53;1770921;79;22005;-55
2021/07/15 08:01:51;;;;;;;;;;;;;;;25.35;51.00;100527.03;1773569;79;20175;-56
2021/07/15 08:04:18;;;;;;;;;;;;;;;25.31;50.91;100526.94;1772881;80;20169;-56
2021/07/15 08:06:46;;;;;;;;;;;;;;;25.28;50.83;100528.25;1775264;79;20319;-56
2021/07/15 08:09:12;;;;;;;;;;;;;;;25.25;50.76;100520.00;1772195;79;20144;-56
2021/07/15 08:11:46;;;;;;;;;;;;;;;25.24;50.67;100526.76;1773336;79;20588;-56
2021/07/15 08:14:10;;;;;;;;;;;;;;;25.20;50.59;100521.67;1770385;79;20211;-56
2021/07/15 08:16:36;;;;;;;;;;;;;;;25.18;50.54;100523.17;1771607;80;20251;-56
2021/07/15 08:19:02;;;;;;;;;;;;;;;25.16;50.45;100524.95;1774076;79;20969;-56
2021/07/15 08:21:30;;;;;;;;;;;;;;;25.13;50.37;100515.89;1772176;80;20259;-55
2021/07/15 08:23:58;;;;;;;;;;;;;;;25.12;50.30;100523.23;1768899;79;20928;-57
2021/07/15 08:26:23;;;;;;;;;;;;;;;25.08;50.23;100523.10;1770797;79;20208;-56
2021/07/15 08:28:49;;;;;;;;;;;;;;;25.07;50.15;100520.69;1775842;80;20696;-56
2021/07/15 08:31:15;;;;;;;;;;;;;;;25.05;50.07;100516.05;1769475;80;20227;-56
2021/07/15 08:33:41;;;;;;;;;;;;;;;25.03;50.04;100508.65;1773693;80;20208;-57
2021/07/15 08:36:07;;;;;;;;;;;;;;;25.01;49.95;100515.95;1772083;79;21175;-57
2021/07/15 08:38:35;;;;;;;;;;;;;;;24.99;49.89;100515.51;1772409;80;20217;-56
2021/07/15 08:41:02;;;;;;;;;;;;;;;24.97;49.83;100510.29;1774113;79;20185;-56
2021/07/15 08:43:27;;;;;;;;;;;;;;;24.96;49.77;100505.06;1774987;79;20171;-56
2021/07/15 08:45:56;;;;;;;;;;;;;;;24.95;49.71;100505.64;1775761;79;20179;-57
2021/07/15 08:48:22;;;;;;;;;;;;;;;24.93;49.64;100507.17;1770355;80;21176;-57
2021/07/15 08:50:50;;;;;;;;;;;;;;;24.92;49.57;100502.19;1771068;80;20244;-57
2021/07/15 08:53:17;;;;;;;;;;;;;;;24.90;49.54;100511.48;1771163;79;20249;-57
2021/07/15 08:58:16;;;;;;;;;;;;;;;24.88;49.40;100504.64;1742953;80;20171;-56
2021/07/15 09:00:42;;;;;;;;;;;;;;;24.86;49.37;100493.88;1772242;79;21165;-57
2021/07/15 09:03:09;;;;;;;;;;;;;;;24.85;49.32;100490.86;1771164;79;20210;-57
2021/07/15 09:05:35;;;;;;;;;;;;;;;24.85;49.24;100490.02;1777303;80;20188;-57
2021/07/15 09:08:01;;;;;;;;;;;;;;;24.83;49.19;100485.38;1746881;80;20792;-56
2021/07/15 09:10:28;;;;;;;;;;;;;;;24.84;49.15;100491.17;1780983;80;20112;-57
2021/07/15 09:12:55;;;;;;;;;;;;;;;24.82;49.10;100487.95;1781385;79;21121;-56
2021/07/15 09:15:21;;;;;;;;;;;;;;;24.82;49.03;100486.56;1781359;79;20132;-56
2021/07/15 09:17:47;;;;;;;;;;;;;;;24.81;49.00;100480.18;1731735;80;20205;-57
2021/07/15 09:20:21;;;;;;;;;;;;;;;24.81;48.91;100476.59;1732020;80;21534;-55
2021/07/15 09:22:59;;;;;;;;;;;;;;;24.78;48.86;100480.87;1778987;79;20183;-55
2021/07/15 09:25:32;;;;;;;;;;;;;;;24.78;48.82;100480.08;1781639;79;22707;-56
2021/07/15 09:27:58;;;;;;;;;;;;;;;24.78;48.78;100476.69;1770681;79;21129;-59
2021/07/15 09:30:24;;;;;;;;;;;;;;;24.78;48.79;100480.87;1775152;79;20202;-58
2021/07/15 09:33:01;;;;;;;;;;;;;;;24.79;48.80;100469.97;1775325;80;20199;-59
2021/07/15 09:35:42;;;;;;;;;;;;;;;24.82;48.80;100469.86;1773758;79;20139;-60
2021/07/15 09:38:22;;;;;;;;;;;;;;;24.84;48.73;100470.30;1773292;79;21925;-60
2021/07/15 09:40:55;;;;;;;;;;;;;;;24.88;48.74;100478.20;1772608;80;20188;-59
2021/07/15 09:43:25;;;;;;;;;;;;;;;24.91;48.71;100464.37;1772810;80;20173;-60
2021/07/15 09:45:56;;;;;;;;;;;;;;;24.95;48.66;100466.68;1779084;80;20223;-60
2021/07/15 09:48:26;;;;;;;;;;;;;;;24.99;48.63;100465.41;1776356;79;20133;-60
2021/07/15 09:50:57;;;;;;;;;;;;;;;25.03;48.59;100464.92;1778694;79;21136;-59
2021/07/15 09:53:25;;;;;;;;;;;;;;;25.05;48.51;100461.19;1773117;79;20192;-60
2021/07/15 09:56:00;;;;;;;;;;;;;;;25.08;48.48;100457.69;1770793;79;20175;-59
2021/07/15 09:58:28;;;;;;;;;;;;;;;25.10;48.44;100453.98;1777337;80;20199;-60
2021/07/15 10:00:53;;;;;;;;;;;;;;;25.13;48.35;100453.25;1779790;79;20188;-60
2021/07/15 10:03:19;;;;;;;;;;;;;;;25.15;48.31;100447.34;1728124;80;21304;-60
2021/07/15 10:05:50;;;;;;;;;;;;;;;25.17;48.29;100447.77;1773848;80;20232;-59
2021/07/15 10:08:25;;;;;;;;;;;;;;;25.20;48.27;100449.87;1776943;79;20454;-60
2021/07/15 10:10:51;;;;;;;;;;;;;;;25.25;48.30;100452.39;1775712;79;20837;-60
2021/07/15 10:13:18;;;;;;;;;;;;;;;25.31;48.34;100446.77;1771610;79;20275;-59
2021/07/15 10:15:45;;;;;;;;;;;;;;;25.35;48.38;100444.30;1770899;79;20898;-60
2021/07/15 10:18:11;;;;;;;;;;;;;;;25.42;48.41;100446.45;1774257;80;20225;-60
2021/07/15 10:20:37;;;;;;;;;;;;;;;25.47;48.43;100445.61;1769260;79;20188;-60
2021/07/15 10:23:04;;;;;;;;;;;;;;;25.51;48.46;100440.12;1771229;79;20155;-60
2021/07/15 10:25:30;;;;;;;;;;;;;;;25.56;48.46;100448.24;1776329;79;20207;-59
2021/07/15 10:27:56;;;;;;;;;;;;;;;25.61;48.47;100438.23;1765471;80;21106;-60
2021/07/15 10:30:22;;;;;;;;;;;;;;;25.66;48.49;100435.75;1770371;80;20321;-60
2021/07/15 10:32:48;;;;;;;;;;;;;;;25.71;48.47;100445.23;1765714;80;20194;-59
2021/07/15 10:35:16;;;;;;;;;;;;;;;25.73;48.41;100438.13;1767943;79;20163;-60
2021/07/15 10:37:43;;;;;;;;;;;;;;;25.74;48.32;100431.97;1767208;80;20639;-60
2021/07/15 10:40:14;;;;;;;;;;;;;;;25.76;48.27;100435.19;1774979;79;21055;-60
2021/07/15 10:42:40;;;;;;;;;;;;;;;25.76;48.20;100438.78;1769720;80;20169;-59
2021/07/15 10:45:07;;;;;;;;;;;;;;;25.76;48.15;100430.42;1765993;80;20226;-60
2021/07/15 10:47:34;;;;;;;;;;;;;;;25.77;48.13;100426.48;1768571;79;20596;-60
2021/07/15 10:50:00;;;;;;;;;;;;;;;25.79;48.17;100425.55;1765348;80;20255;-59
2021/07/15 10:52:26;;;;;;;;;;;;;;;25.83;48.20;100422.84;1768025;79;21077;-59
2021/07/15 10:54:52;;;;;;;;;;;;;;;25.87;48.20;100424.53;1770185;80;20204;-60
2021/07/15 10:57:23;;;;;;;;;;;;;;;25.89;48.11;100419.39;1746208;80;21406;-58
2021/07/15 10:59:49;;;;;;;;;;;;;;;25.91;48.06;100425.43;1772021;80;20243;-59
2021/07/15 11:02:20;;;;;;;;;;;;;;;25.93;48.02;100415.91;1768805;80;20248;-58
2021/07/15 11:04:46;;;;;;;;;;;;;;;25.93;47.97;100414.51;1775947;79;21148;-59
2021/07/15 11:07:22;;;;;;;;;;;;;;;25.96;47.92;100413.19;1743920;80;20262;-58
2021/07/15 11:09:49;;;;;;;;;;;;;;;25.97;47.88;100415.39;1771279;80;20230;-60
2021/07/15 11:12:38;;;;;;;;;;;;;;;25.99;47.92;100409.67;1773418;79;20298;-60
2021/07/15 11:15:09;;;;;;;;;;;;;;;26.03;47.95;100409.16;1772495;79;20265;-58
2021/07/15 11:17:50;;;;;;;;;;;;;;;26.08;47.98;100413.64;1769930;79;21972;-59
2021/07/15 11:20:19;;;;;;;;;;;;;;;26.12;48.03;100401.98;1773911;80;20204;-59
2021/07/15 11:23:00;;;;;;;;;;;;;;;26.15;48.05;100402.06;1766473;79;20136;-59
2021/07/15 11:25:33;;;;;;;;;;;;;;;26.19;48.08;100400.16;1773509;80;20207;-58
2021/07/15 11:28:20;;;;;;;;;;;;;;;26.22;48.12;100405.05;1775328;80;20427;-58
2021/07/15 11:30:47;;;;;;;;;;;;;;;26.26;48.13;100400.94;1771177;79;21115;-58
2021/07/15 11:33:23;;;;;;;;;;;;;;;26.29;48.06;100396.02;1771864;80;20467;-58
2021/07/15 11:36:04;;;;;;;;;;;;;;;26.30;47.96;100394.27;1771559;79;20697;-58
2021/07/15 11:38:56;;;;;;;;;;;;;;;26.31;47.89;100392.27;1770611;79;20401;-59
2021/07/15 11:41:22;;;;;;;;;;;;;;;26.31;47.79;100393.66;1768800;80;20236;-58
2021/07/15 11:43:55;;;;;;;;;;;;;;;26.31;47.72;100387.49;1762611;80;21246;-59
2021/07/15 11:46:37;;;;;;;;;;;;;;;26.31;47.63;100381.10;1771039;79;20720;-59
2021/07/15 11:49:19;;;;;;;;;;;;;;;26.32;47.57;100386.91;1771001;80;20646;-58
2021/07/15 11:52:00;;;;;;;;;;;;;;;26.30;47.51;100383.11;1769537;80;20192;-59
2021/07/15 11:54:29;;;;;;;;;;;;;;;26.31;47.41;100378.31;1769490;79;20545;-59
2021/07/15 11:57:14;;;;;;;;;;;;;;;26.32;47.36;100384.12;1769183;79;22221;-59
2021/07/15 11:59:46;;;;;;;;;;;;;;;26.30;47.30;100385.91;1772551;79;20233;-60
2021/07/15 12:02:36;;;;;;;;;;;;;;;26.31;47.23;100377.73;1768235;80;20209;-59
2021/07/15 12:05:13;;;;;;;;;;;;;;;26.32;47.17;100383.53;1771766;79;21977;-61
2021/07/15 12:08:05;;;;;;;;;;;;;;;26.32;47.09;100384.93;1764359;79;20280;-61
2021/07/15 12:10:35;;;;;;;;;;;;;;;26.32;47.02;100383.53;1766683;79;22179;-60
2021/07/15 12:13:02;;;;;;;;;;;;;;;26.32;46.97;100380.75;1776855;79;20124;-61
2021/07/15 12:15:28;;;;;;;;;;;;;;;26.35;46.93;100376.44;1772651;80;20170;-59
2021/07/15 12:17:57;;;;;;;;;;;;;;;26.36;46.94;100373.84;1769461;79;20193;-59
2021/07/15 12:20:25;;;;;;;;;;;;;;;26.38;46.94;100368.72;1770384;80;20223;-61
2021/07/15 12:22:56;;;;;;;;;;;;;;;26.41;46.95;100367.98;1771122;79;21703;-60
2021/07/15 12:25:24;;;;;;;;;;;;;;;26.44;46.93;100363.05;1771134;79;20570;-61
2021/07/15 12:27:52;;;;;;;;;;;;;;;26.47;46.93;100365.70;1770059;80;20239;-62
2021/07/15 12:30:19;;;;;;;;;;;;;;;26.50;46.94;100369.95;1770954;79;20191;-61
2021/07/15 12:32:56;;;;;;;;;;;;;;;26.52;46.91;100360.62;1772357;80;20292;-61
2021/07/15 12:35:22;;;;;;;;;;;;;;;26.56;46.87;100355.13;1770389;80;22011;-61
2021/07/15 12:37:48;;;;;;;;;;;;;;;26.57;46.81;100349.16;1772363;79;20239;-61
2021/07/15 12:40:15;;;;;;;;;;;;;;;26.58;46.80;100352.18;1772794;79;20329;-59
2021/07/15 12:42:40;;;;;;;;;;;;;;;26.61;46.75;100354.81;1766417;80;20410;-61
2021/07/15 12:45:18;;;;;;;;;;;;;;;26.63;46.72;100350.48;1773277;80;20510;-60